sensor_id;sensor_type;location;lat;lon;timestamp;pressure;altitude;pressure_sealevel;temperature;humidity
73422;BME280;61637;47.760;-122.022;2023-04-01T00:00:01;101253.06099999999;;;6.3;unknown
73422;BME280;61637;47.760;-122.022;2023-04-01T00:02:01;101253.06099999999;;;6.3;unknown
73422;BME280;61637;47.760;-122.022;2023-04-01T00:04:01;101253.06099999999;;;6.2;unknown
73422;BME280;61637;47.760;-122.022;2023-04-01T00:06:01;101253.06099999999;;;6.3;unknown
73422;BME280;61637;47.760;-122.022;2023-04-01T00:08:01;101253.06099999999;;;6.2;unknown
73422;BME280;61637;47.760;-122.022;2023-04-01T00:10:01;101253.06099999999;;;6.2;unknown
73422;BME280;61637;47.760;-122.022;2023-04-01T00:12:01;101253.06099999999;;;6.2;unknown
73422;BME280;61637;47.760;-122.022;2023-04-01T00:14:01;101253.06099999999;;;6.2;unknown
73422;BME280;61637;47.760;-122.022;2023-04-01T00:16:01;101253.06099999999;;;6.2;unknown
73422;BME280;61637;47.760;-122.022;2023-04-01T00:18:01;101253.06099999999;;;6.3;unknown
73422;BME280;61637;47.760;-122.022;2023-04-01T00:20:01;101253.06099999999;;;6.2;unknown
73422;BME280;61637;47.760;-122.022;2023-04-01T00:22:01;101253.06099999999;;;6.3;unknown
73422;BME280;61637;47.760;-122.022;2023-04-01T00:24:01;101253.06099999999;;;6.3;unknown
73422;BME280;61637;47.760;-122.022;2023-04-01T00:26:01;101253.06099999999;;;6.3;unknown
73422;BME280;61637;47.760;-122.022;2023-04-01T00:28:01;101253.06099999999;;;6.3;unknown
73422;BME280;61637;47.760;-122.022;2023-04-01T00:30:01;101253.06099999999;;;6.3;unknown
73422;BME280;61637;47.760;-122.022;2023-04-01T00:32:01;101253.06099999999;;;6.3;unknown
73422;BME280;61637;47.760;-122.022;2023-04-01T00:34:01;101253.06099999999;;;6.4;unknown
73422;BME280;61637;47.760;-122.022;2023-04-01T00:36:08;101253.06099999999;;;6.4;unknown
73422;BME280;61637;47.760;-122.022;2023-04-01T00:38:01;101253.06099999999;;;6.4;unknown
73422;BME280;61637;47.760;-122.022;2023-04-01T00:40:01;101253.06099999999;;;6.4;unknown
73422;BME280;61637;47.760;-122.022;2023-04-01T00:42:01;101253.06099999999;;;6.4;unknown
73422;BME280;61637;47.760;-122.022;2023-04-01T00:46:01;101253.06099999999;;;6.5;unknown
73422;BME280;61637;47.760;-122.022;2023-04-01T00:48:02;101253.06099999999;;;6.5;unknown
73422;BME280;61637;47.760;-122.022;2023-04-01T00:50:01;101253.06099999999;;;6.6;unknown
73422;BME280;61637;47.760;-122.022;2023-04-01T00:52:01;101253.06099999999;;;6.5;unknown
73422;BME280;61637;47.760;-122.022;2023-04-01T00:54:01;101253.06099999999;;;6.5;unknown
73422;BME280;61637;47.760;-122.022;2023-04-01T00:56:02;101253.06099999999;;;6.5;unknown
73422;BME280;61637;47.760;-122.022;2023-04-01T00:58:02;101253.06099999999;;;6.5;unknown
73422;BME280;61637;47.760;-122.022;2023-04-01T01:00:01;101253.06099999999;;;6.4;unknown
73422;BME280;61637;47.760;-122.022;2023-04-01T01:02:02;101253.06099999999;;;6.5;unknown
73422;BME280;61637;47.760;-122.022;2023-04-01T01:04:01;101253.06099999999;;;6.5;unknown
73422;BME280;61637;47.760;-122.022;2023-04-01T01:06:08;101253.06099999999;;;6.4;unknown
73422;BME280;61637;47.760;-122.022;2023-04-01T01:08:02;101253.06099999999;;;6.4;unknown
73422;BME280;61637;47.760;-122.022;2023-04-01T01:10:02;101253.06099999999;;;6.4;unknown
73422;BME280;61637;47.760;-122.022;2023-04-01T01:12:03;101253.06099999999;;;6.4;unknown
73422;BME280;61637;47.760;-122.022;2023-04-01T01:14:02;101253.06099999999;;;6.4;unknown
73422;BME280;61637;47.760;-122.022;2023-04-01T01:16:03;101253.06099999999;;;6.3;unknown
73422;BME280;61637;47.760;-122.022;2023-04-01T01:18:02;101253.06099999999;;;6.4;unknown
73422;BME280;61637;47.760;-122.022;2023-04-01T01:20:09;101253.06099999999;;;6.3;unknown
73422;BME280;61637;47.760;-122.022;2023-04-01T01:24:07;101253.06099999999;;;6.3;unknown
73422;BME280;61637;47.760;-122.022;2023-04-01T01:26:07;101253.06099999999;;;6.3;unknown
73422;BME280;61637;47.760;-122.022;2023-04-01T01:28:05;101253.06099999999;;;6.3;unknown
73422;BME280;61637;47.760;-122.022;2023-04-01T01:32:03;101253.06099999999;;;6.2;unknown
73422;BME280;61637;47.760;-122.022;2023-04-01T01:34:03;101253.06099999999;;;6.2;unknown
73422;BME280;61637;47.760;-122.022;2023-04-01T01:36:02;101253.06099999999;;;6.2;unknown
73422;BME280;61637;47.760;-122.022;2023-04-01T01:38:02;101253.06099999999;;;6.2;unknown
73422;BME280;61637;47.760;-122.022;2023-04-01T01:40:02;101253.06099999999;;;6.1;unknown
73422;BME280;61637;47.760;-122.022;2023-04-01T01:42:02;101253.06099999999;;;6.1;unknown
73422;BME280;61637;47.760;-122.022;2023-04-01T01:44:01;101253.06099999999;;;6.1;unknown
73422;BME280;61637;47.760;-122.022;2023-04-01T01:46:01;101253.06099999999;;;6.1;unknown
73422;BME280;61637;47.760;-122.022;2023-04-01T01:48:01;101253.06099999999;;;6.1;unknown
73422;BME280;61637;47.760;-122.022;2023-04-01T01:50:01;101253.06099999999;;;6.1;unknown
73422;BME280;61637;47.760;-122.022;2023-04-01T01:52:01;101253.06099999999;;;6.1;unknown
73422;BME280;61637;47.760;-122.022;2023-04-01T01:54:01;101253.06099999999;;;6.1;unknown
73422;BME280;61637;47.760;-122.022;2023-04-01T01:56:01;101253.06099999999;;;6.1;unknown
73422;BME280;61637;47.760;-122.022;2023-04-01T01:58:02;101253.06099999999;;;6.0;unknown
73422;BME280;61637;47.760;-122.022;2023-04-01T02:00:03;101253.06099999999;;;6.0;unknown
73422;BME280;61637;47.760;-122.022;2023-04-01T02:02:01;101253.06099999999;;;6.0;unknown
73422;BME280;61637;47.760;-122.022;2023-04-01T02:04:01;101253.06099999999;;;6.0;unknown
73422;BME280;61637;47.760;-122.022;2023-04-01T02:06:01;101253.06099999999;;;5.9;unknown
73422;BME280;61637;47.760;-122.022;2023-04-01T02:08:02;101253.06099999999;;;5.9;unknown
73422;BME280;61637;47.760;-122.022;2023-04-01T02:10:01;101253.06099999999;;;5.9;unknown
73422;BME280;61637;47.760;-122.022;2023-04-01T02:12:02;101253.06099999999;;;5.9;unknown
73422;BME280;61637;47.760;-122.022;2023-04-01T02:14:01;101253.06099999999;;;5.9;unknown
73422;BME280;61637;47.760;-122.022;2023-04-01T02:16:02;101253.06099999999;;;5.9;unknown
73422;BME280;61637;47.760;-122.022;2023-04-01T02:18:01;101253.06099999999;;;5.9;unknown
73422;BME280;61637;47.760;-122.022;2023-04-01T02:20:01;101253.06099999999;;;5.9;unknown
73422;BME280;61637;47.760;-122.022;2023-04-01T02:22:01;101253.06099999999;;;5.9;unknown
73422;BME280;61637;47.760;-122.022;2023-04-01T02:24:01;101253.06099999999;;;5.9;unknown
73422;BME280;61637;47.760;-122.022;2023-04-01T02:26:01;101253.06099999999;;;5.9;unknown
73422;BME280;61637;47.760;-122.022;2023-04-01T02:28:01;101253.06099999999;;;5.8;unknown
73422;BME280;61637;47.760;-122.022;2023-04-01T02:30:01;101253.06099999999;;;5.8;unknown
73422;BME280;61637;47.760;-122.022;2023-04-01T02:32:01;101253.06099999999;;;5.8;unknown
73422;BME280;61637;47.760;-122.022;2023-04-01T02:34:01;101253.06099999999;;;5.8;unknown
73422;BME280;61637;47.760;-122.022;2023-04-01T02:36:01;101253.06099999999;;;5.8;unknown
73422;BME280;61637;47.760;-122.022;2023-04-01T02:38:01;101253.06099999999;;;5.8;unknown
73422;BME280;61637;47.760;-122.022;2023-04-01T02:40:01;101253.06099999999;;;5.8;unknown
73422;BME280;61637;47.760;-122.022;2023-04-01T02:42:01;101253.06099999999;;;5.8;unknown
73422;BME280;61637;47.760;-122.022;2023-04-01T02:44:01;101253.06099999999;;;5.7;unknown
73422;BME280;61637;47.760;-122.022;2023-04-01T02:46:01;101253.06099999999;;;5.7;unknown
73422;BME280;61637;47.760;-122.022;2023-04-01T02:48:01;101253.06099999999;;;5.7;unknown
73422;BME280;61637;47.760;-122.022;2023-04-01T02:50:01;101253.06099999999;;;5.7;unknown
73422;BME280;61637;47.760;-122.022;2023-04-01T02:52:01;101253.06099999999;;;5.7;unknown
73422;BME280;61637;47.760;-122.022;2023-04-01T02:54:01;101253.06099999999;;;5.7;unknown
73422;BME280;61637;47.760;-122.022;2023-04-01T02:56:01;101253.06099999999;;;5.7;unknown
73422;BME280;61637;47.760;-122.022;2023-04-01T02:58:01;101253.06099999999;;;5.7;unknown
73422;BME280;61637;47.760;-122.022;2023-04-01T03:00:01;101253.06099999999;;;5.7;unknown
73422;BME280;61637;47.760;-122.022;2023-04-01T03:02:01;101253.06099999999;;;5.7;unknown
73422;BME280;61637;47.760;-122.022;2023-04-01T03:04:01;101253.06099999999;;;5.7;unknown
73422;BME280;61637;47.760;-122.022;2023-04-01T03:06:04;101253.06099999999;;;5.7;unknown
73422;BME280;61637;47.760;-122.022;2023-04-01T03:08:01;101253.06099999999;;;5.7;unknown
73422;BME280;61637;47.760;-122.022;2023-04-01T03:10:01;101253.06099999999;;;5.6;unknown
73422;BME280;61637;47.760;-122.022;2023-04-01T03:12:01;101253.06099999999;;;5.6;unknown
73422;BME280;61637;47.760;-122.022;2023-04-01T03:14:01;101253.06099999999;;;5.6;unknown
73422;BME280;61637;47.760;-122.022;2023-04-01T03:16:01;101253.06099999999;;;5.6;unknown
73422;BME280;61637;47.760;-122.022;2023-04-01T03:18:01;101253.06099999999;;;5.6;unknown
73422;BME280;61637;47.760;-122.022;2023-04-01T03:20:01;101253.06099999999;;;5.6;unknown
73422;BME280;61637;47.760;-122.022;2023-04-01T03:22:01;101253.06099999999;;;5.6;unknown
73422;BME280;61637;47.760;-122.022;2023-04-01T03:24:01;101253.06099999999;;;5.6;unknown
73422;BME280;61637;47.760;-122.022;2023-04-01T03:26:01;101253.06099999999;;;5.6;unknown
73422;BME280;61637;47.760;-122.022;2023-04-01T03:28:01;101253.06099999999;;;5.6;unknown
73422;BME280;61637;47.760;-122.022;2023-04-01T03:30:01;101253.06099999999;;;5.6;unknown
73422;BME280;61637;47.760;-122.022;2023-04-01T03:32:01;101253.06099999999;;;5.6;unknown
73422;BME280;61637;47.760;-122.022;2023-04-01T03:34:01;101253.06099999999;;;5.5;unknown
73422;BME280;61637;47.760;-122.022;2023-04-01T03:36:01;101253.06099999999;;;5.5;unknown
73422;BME280;61637;47.760;-122.022;2023-04-01T03:38:01;101253.06099999999;;;5.5;unknown
73422;BME280;61637;47.760;-122.022;2023-04-01T03:40:01;101253.06099999999;;;5.5;unknown
73422;BME280;61637;47.760;-122.022;2023-04-01T03:42:01;101253.06099999999;;;5.5;unknown
73422;BME280;61637;47.760;-122.022;2023-04-01T03:44:01;101253.06099999999;;;5.5;unknown
73422;BME280;61637;47.760;-122.022;2023-04-01T03:46:01;101253.06099999999;;;5.5;unknown
73422;BME280;61637;47.760;-122.022;2023-04-01T03:48:01;101253.06099999999;;;5.4;unknown
73422;BME280;61637;47.760;-122.022;2023-04-01T03:50:01;101253.06099999999;;;5.4;unknown
73422;BME280;61637;47.760;-122.022;2023-04-01T03:52:01;101253.06099999999;;;5.4;unknown
73422;BME280;61637;47.760;-122.022;2023-04-01T03:54:01;101253.06099999999;;;5.4;unknown
73422;BME280;61637;47.760;-122.022;2023-04-01T03:56:03;101253.06099999999;;;5.4;unknown
73422;BME280;61637;47.760;-122.022;2023-04-01T03:58:01;101253.06099999999;;;5.4;unknown
73422;BME280;61637;47.760;-122.022;2023-04-01T04:00:01;101253.06099999999;;;5.3;unknown
73422;BME280;61637;47.760;-122.022;2023-04-01T04:02:01;101253.06099999999;;;5.3;unknown
73422;BME280;61637;47.760;-122.022;2023-04-01T04:04:01;101253.06099999999;;;5.3;unknown
73422;BME280;61637;47.760;-122.022;2023-04-01T04:06:01;101253.06099999999;;;5.3;unknown
73422;BME280;61637;47.760;-122.022;2023-04-01T04:08:01;101253.06099999999;;;5.3;unknown
73422;BME280;61637;47.760;-122.022;2023-04-01T04:10:01;101253.06099999999;;;5.2;unknown
73422;BME280;61637;47.760;-122.022;2023-04-01T04:12:01;101253.06099999999;;;5.2;unknown
73422;BME280;61637;47.760;-122.022;2023-04-01T04:14:01;101253.06099999999;;;5.2;unknown
73422;BME280;61637;47.760;-122.022;2023-04-01T04:16:01;101253.06099999999;;;5.2;unknown
73422;BME280;61637;47.760;-122.022;2023-04-01T04:18:01;101253.06099999999;;;5.2;unknown
73422;BME280;61637;47.760;-122.022;2023-04-01T04:20:01;101253.06099999999;;;5.2;unknown
73422;BME280;61637;47.760;-122.022;2023-04-01T04:22:01;100914.42199999999;;;5.1;unknown
73422;BME280;61637;47.760;-122.022;2023-04-01T04:24:01;100914.42199999999;;;5.1;unknown
73422;BME280;61637;47.760;-122.022;2023-04-01T04:26:02;100914.42199999999;;;5.1;unknown
73422;BME280;61637;47.760;-122.022;2023-04-01T04:28:01;100914.42199999999;;;5.1;unknown
73422;BME280;61637;47.760;-122.022;2023-04-01T04:30:01;100914.42199999999;;;5.1;unknown
73422;BME280;61637;47.760;-122.022;2023-04-01T04:32:01;100914.42199999999;;;5.1;unknown
73422;BME280;61637;47.760;-122.022;2023-04-01T04:34:01;100914.42199999999;;;5.1;unknown
73422;BME280;61637;47.760;-122.022;2023-04-01T04:36:01;100914.42199999999;;;5.0;unknown
73422;BME280;61637;47.760;-122.022;2023-04-01T04:38:01;100914.42199999999;;;5.0;unknown
73422;BME280;61637;47.760;-122.022;2023-04-01T04:40:01;100914.42199999999;;;4.9;unknown
73422;BME280;61637;47.760;-122.022;2023-04-01T04:42:01;100914.42199999999;;;4.9;unknown
73422;BME280;61637;47.760;-122.022;2023-04-01T04:44:01;100914.42199999999;;;4.9;unknown
73422;BME280;61637;47.760;-122.022;2023-04-01T04:46:04;100914.42199999999;;;4.9;unknown
73422;BME280;61637;47.760;-122.022;2023-04-01T04:48:01;100914.42199999999;;;4.9;unknown
73422;BME280;61637;47.760;-122.022;2023-04-01T04:50:01;100914.42199999999;;;4.8;unknown
73422;BME280;61637;47.760;-122.022;2023-04-01T04:52:01;100914.42199999999;;;4.8;unknown
73422;BME280;61637;47.760;-122.022;2023-04-01T04:54:01;100914.42199999999;;;4.8;unknown
73422;BME280;61637;47.760;-122.022;2023-04-01T04:56:01;100914.42199999999;;;4.8;unknown
73422;BME280;61637;47.760;-122.022;2023-04-01T04:58:01;100914.42199999999;;;4.8;unknown
73422;BME280;61637;47.760;-122.022;2023-04-01T05:00:01;100914.42199999999;;;4.8;unknown
73422;BME280;61637;47.760;-122.022;2023-04-01T05:02:01;100914.42199999999;;;4.8;unknown
73422;BME280;61637;47.760;-122.022;2023-04-01T05:04:01;100914.42199999999;;;4.8;unknown
73422;BME280;61637;47.760;-122.022;2023-04-01T05:06:01;100914.42199999999;;;4.8;unknown
73422;BME280;61637;47.760;-122.022;2023-04-01T05:08:01;100914.42199999999;;;4.8;unknown
73422;BME280;61637;47.760;-122.022;2023-04-01T05:10:01;100914.42199999999;;;4.7;unknown
73422;BME280;61637;47.760;-122.022;2023-04-01T05:12:01;100914.42199999999;;;4.7;unknown
73422;BME280;61637;47.760;-122.022;2023-04-01T05:14:01;100914.42199999999;;;4.7;unknown
73422;BME280;61637;47.760;-122.022;2023-04-01T05:16:01;100914.42199999999;;;4.7;unknown
73422;BME280;61637;47.760;-122.022;2023-04-01T05:18:01;100914.42199999999;;;4.7;unknown
73422;BME280;61637;47.760;-122.022;2023-04-01T05:20:01;100914.42199999999;;;4.7;unknown
73422;BME280;61637;47.760;-122.022;2023-04-01T05:22:01;100914.42199999999;;;4.7;unknown
73422;BME280;61637;47.760;-122.022;2023-04-01T05:24:01;100914.42199999999;;;4.7;unknown
73422;BME280;61637;47.760;-122.022;2023-04-01T05:26:02;100914.42199999999;;;4.7;unknown
73422;BME280;61637;47.760;-122.022;2023-04-01T05:28:01;100914.42199999999;;;4.7;unknown
73422;BME280;61637;47.760;-122.022;2023-04-01T05:30:01;100914.42199999999;;;4.7;unknown
73422;BME280;61637;47.760;-122.022;2023-04-01T05:32:01;100914.42199999999;;;4.7;unknown
73422;BME280;61637;47.760;-122.022;2023-04-01T05:34:01;100914.42199999999;;;4.7;unknown
73422;BME280;61637;47.760;-122.022;2023-04-01T05:36:08;100914.42199999999;;;4.7;unknown
73422;BME280;61637;47.760;-122.022;2023-04-01T05:38:01;100914.42199999999;;;4.7;unknown
73422;BME280;61637;47.760;-122.022;2023-04-01T05:40:01;100914.42199999999;;;4.7;unknown
73422;BME280;61637;47.760;-122.022;2023-04-01T05:42:01;100914.42199999999;;;4.7;unknown
73422;BME280;61637;47.760;-122.022;2023-04-01T05:44:01;100914.42199999999;;;4.7;unknown
73422;BME280;61637;47.760;-122.022;2023-04-01T05:46:01;100914.42199999999;;;4.7;unknown
73422;BME280;61637;47.760;-122.022;2023-04-01T05:48:01;100914.42199999999;;;4.7;unknown
73422;BME280;61637;47.760;-122.022;2023-04-01T05:50:01;100914.42199999999;;;4.7;unknown
73422;BME280;61637;47.760;-122.022;2023-04-01T05:52:01;100914.42199999999;;;4.6;unknown
73422;BME280;61637;47.760;-122.022;2023-04-01T05:54:01;100914.42199999999;;;4.6;unknown
73422;BME280;61637;47.760;-122.022;2023-04-01T05:56:02;100914.42199999999;;;4.6;unknown
73422;BME280;61637;47.760;-122.022;2023-04-01T05:58:01;100914.42199999999;;;4.6;unknown
73422;BME280;61637;47.760;-122.022;2023-04-01T06:00:01;100914.42199999999;;;4.6;unknown
73422;BME280;61637;47.760;-122.022;2023-04-01T06:02:01;100914.42199999999;;;4.6;unknown
73422;BME280;61637;47.760;-122.022;2023-04-01T06:04:01;100914.42199999999;;;4.6;unknown
73422;BME280;61637;47.760;-122.022;2023-04-01T06:06:01;100914.42199999999;;;4.6;unknown
73422;BME280;61637;47.760;-122.022;2023-04-01T06:08:05;100914.42199999999;;;4.6;unknown
73422;BME280;61637;47.760;-122.022;2023-04-01T06:10:01;100914.42199999999;;;4.6;unknown
73422;BME280;61637;47.760;-122.022;2023-04-01T06:12:07;100914.42199999999;;;4.6;unknown
73422;BME280;61637;47.760;-122.022;2023-04-01T06:14:08;100914.42199999999;;;4.6;unknown
73422;BME280;61637;47.760;-122.022;2023-04-01T06:16:03;100914.42199999999;;;4.6;unknown
73422;BME280;61637;47.760;-122.022;2023-04-01T06:18:08;100914.42199999999;;;4.6;unknown
73422;BME280;61637;47.760;-122.022;2023-04-01T06:20:02;100914.42199999999;;;4.5;unknown
73422;BME280;61637;47.760;-122.022;2023-04-01T06:22:05;100914.42199999999;;;4.5;unknown
73422;BME280;61637;47.760;-122.022;2023-04-01T06:24:04;100914.42199999999;;;4.5;unknown
73422;BME280;61637;47.760;-122.022;2023-04-01T06:26:03;100914.42199999999;;;4.5;unknown
73422;BME280;61637;47.760;-122.022;2023-04-01T06:28:05;100914.42199999999;;;4.5;unknown
73422;BME280;61637;47.760;-122.022;2023-04-01T06:30:03;100914.42199999999;;;4.5;unknown
73422;BME280;61637;47.760;-122.022;2023-04-01T06:32:05;100914.42199999999;;;4.5;unknown
73422;BME280;61637;47.760;-122.022;2023-04-01T06:34:05;100914.42199999999;;;4.5;unknown
73422;BME280;61637;47.760;-122.022;2023-04-01T06:36:06;100914.42199999999;;;4.5;unknown
73422;BME280;61637;47.760;-122.022;2023-04-01T06:38:04;100914.42199999999;;;4.5;unknown
73422;BME280;61637;47.760;-122.022;2023-04-01T06:40:04;100914.42199999999;;;4.6;unknown
73422;BME280;61637;47.760;-122.022;2023-04-01T06:44:05;100914.42199999999;;;4.6;unknown
73422;BME280;61637;47.760;-122.022;2023-04-01T06:46:02;100914.42199999999;;;4.5;unknown
73422;BME280;61637;47.760;-122.022;2023-04-01T06:48:08;100914.42199999999;;;4.6;unknown
73422;BME280;61637;47.760;-122.022;2023-04-01T06:50:03;100914.42199999999;;;4.5;unknown
73422;BME280;61637;47.760;-122.022;2023-04-01T06:52:02;100914.42199999999;;;4.6;unknown
73422;BME280;61637;47.760;-122.022;2023-04-01T06:54:02;100914.42199999999;;;4.5;unknown
73422;BME280;61637;47.760;-122.022;2023-04-01T06:56:02;100914.42199999999;;;4.5;unknown
73422;BME280;61637;47.760;-122.022;2023-04-01T06:58:01;100914.42199999999;;;4.5;unknown
73422;BME280;61637;47.760;-122.022;2023-04-01T07:00:02;100914.42199999999;;;4.4;unknown
73422;BME280;61637;47.760;-122.022;2023-04-01T07:02:02;100914.42199999999;;;4.4;unknown
73422;BME280;61637;47.760;-122.022;2023-04-01T07:04:01;100914.42199999999;;;4.5;unknown
73422;BME280;61637;47.760;-122.022;2023-04-01T07:06:02;100914.42199999999;;;4.5;unknown
73422;BME280;61637;47.760;-122.022;2023-04-01T07:08:02;100914.42199999999;;;4.4;unknown
73422;BME280;61637;47.760;-122.022;2023-04-01T07:10:02;100914.42199999999;;;4.5;unknown
73422;BME280;61637;47.760;-122.022;2023-04-01T07:12:02;100914.42199999999;;;4.6;unknown
73422;BME280;61637;47.760;-122.022;2023-04-01T07:14:02;100914.42199999999;;;4.5;unknown
73422;BME280;61637;47.760;-122.022;2023-04-01T07:16:06;100914.42199999999;;;4.5;unknown
73422;BME280;61637;47.760;-122.022;2023-04-01T07:18:02;100914.42199999999;;;4.6;unknown
73422;BME280;61637;47.760;-122.022;2023-04-01T07:20:02;100914.42199999999;;;4.5;unknown
73422;BME280;61637;47.760;-122.022;2023-04-01T07:22:03;100914.42199999999;;;4.6;unknown
73422;BME280;61637;47.760;-122.022;2023-04-01T07:24:03;100914.42199999999;;;4.6;unknown
73422;BME280;61637;47.760;-122.022;2023-04-01T07:26:03;100914.42199999999;;;4.6;unknown
73422;BME280;61637;47.760;-122.022;2023-04-01T07:28:02;100914.42199999999;;;4.6;unknown
73422;BME280;61637;47.760;-122.022;2023-04-01T07:30:01;100914.42199999999;;;4.7;unknown
73422;BME280;61637;47.760;-122.022;2023-04-01T07:32:07;100914.42199999999;;;4.7;unknown
73422;BME280;61637;47.760;-122.022;2023-04-01T07:34:03;100914.42199999999;;;4.7;unknown
73422;BME280;61637;47.760;-122.022;2023-04-01T07:36:02;100914.42199999999;;;4.7;unknown
73422;BME280;61637;47.760;-122.022;2023-04-01T07:38:04;100914.42199999999;;;4.7;unknown
73422;BME280;61637;47.760;-122.022;2023-04-01T07:40:04;100914.42199999999;;;4.8;unknown
73422;BME280;61637;47.760;-122.022;2023-04-01T07:42:04;100914.42199999999;;;4.8;unknown
73422;BME280;61637;47.760;-122.022;2023-04-01T07:44:05;100914.42199999999;;;4.8;unknown
73422;BME280;61637;47.760;-122.022;2023-04-01T07:46:03;100914.42199999999;;;4.8;unknown
73422;BME280;61637;47.760;-122.022;2023-04-01T07:48:05;100914.42199999999;;;4.8;unknown
73422;BME280;61637;47.760;-122.022;2023-04-01T07:50:03;100914.42199999999;;;4.8;unknown
73422;BME280;61637;47.760;-122.022;2023-04-01T07:52:02;100914.42199999999;;;4.8;unknown
73422;BME280;61637;47.760;-122.022;2023-04-01T07:54:02;101253.06099999999;;;4.8;unknown
73422;BME280;61637;47.760;-122.022;2023-04-01T07:56:02;101253.06099999999;;;4.9;unknown
73422;BME280;61637;47.760;-122.022;2023-04-01T07:58:02;100914.42199999999;;;4.9;unknown
73422;BME280;61637;47.760;-122.022;2023-04-01T08:00:02;101253.06099999999;;;4.9;unknown
73422;BME280;61637;47.760;-122.022;2023-04-01T08:02:03;100914.42199999999;;;4.8;unknown
73422;BME280;61637;47.760;-122.022;2023-04-01T08:06:02;101253.06099999999;;;4.8;unknown
73422;BME280;61637;47.760;-122.022;2023-04-01T08:08:03;101253.06099999999;;;4.8;unknown
73422;BME280;61637;47.760;-122.022;2023-04-01T08:10:02;101253.06099999999;;;4.8;unknown
73422;BME280;61637;47.760;-122.022;2023-04-01T08:12:04;100914.42199999999;;;4.8;unknown
73422;BME280;61637;47.760;-122.022;2023-04-01T08:14:02;101253.06099999999;;;4.7;unknown
73422;BME280;61637;47.760;-122.022;2023-04-01T08:16:03;101253.06099999999;;;4.7;unknown
73422;BME280;61637;47.760;-122.022;2023-04-01T08:18:05;101253.06099999999;;;4.7;unknown
73422;BME280;61637;47.760;-122.022;2023-04-01T08:20:05;101253.06099999999;;;4.7;unknown
73422;BME280;61637;47.760;-122.022;2023-04-01T08:22:02;101253.06099999999;;;4.7;unknown
73422;BME280;61637;47.760;-122.022;2023-04-01T08:24:04;101253.06099999999;;;4.7;unknown
73422;BME280;61637;47.760;-122.022;2023-04-01T08:26:02;101253.06099999999;;;4.6;unknown
73422;BME280;61637;47.760;-122.022;2023-04-01T08:28:03;101253.06099999999;;;4.6;unknown
73422;BME280;61637;47.760;-122.022;2023-04-01T08:30:02;101253.06099999999;;;4.6;unknown
73422;BME280;61637;47.760;-122.022;2023-04-01T08:32:03;101253.06099999999;;;4.6;unknown
73422;BME280;61637;47.760;-122.022;2023-04-01T08:34:01;101253.06099999999;;;4.5;unknown
73422;BME280;61637;47.760;-122.022;2023-04-01T08:36:03;101253.06099999999;;;4.5;unknown
73422;BME280;61637;47.760;-122.022;2023-04-01T08:38:01;101253.06099999999;;;4.5;unknown
73422;BME280;61637;47.760;-122.022;2023-04-01T08:40:02;;;;4.5;
73422;BME280;61637;47.760;-122.022;2023-04-01T08:44:05;101253.06099999999;;;4.4;unknown
73422;BME280;61637;47.760;-122.022;2023-04-01T08:46:05;101253.06099999999;;;4.4;unknown
73422;BME280;61637;47.760;-122.022;2023-04-01T08:48:06;101253.06099999999;;;4.4;unknown
73422;BME280;61637;47.760;-122.022;2023-04-01T08:50:06;101253.06099999999;;;4.4;unknown
73422;BME280;61637;47.760;-122.022;2023-04-01T08:52:07;101253.06099999999;;;4.4;unknown
73422;BME280;61637;47.760;-122.022;2023-04-01T08:54:05;101253.06099999999;;;4.3;unknown
73422;BME280;61637;47.760;-122.022;2023-04-01T08:56:04;101253.06099999999;;;4.3;unknown
73422;BME280;61637;47.760;-122.022;2023-04-01T09:00:04;101253.06099999999;;;4.3;unknown
73422;BME280;61637;47.760;-122.022;2023-04-01T09:04:06;101253.06099999999;;;4.3;unknown
73422;BME280;61637;47.760;-122.022;2023-04-01T09:08:03;101253.06099999999;;;4.3;unknown
73422;BME280;61637;47.760;-122.022;2023-04-01T09:12:07;101253.06099999999;;;4.3;unknown
73422;BME280;61637;47.760;-122.022;2023-04-01T09:14:06;101253.06099999999;;;4.3;unknown
73422;BME280;61637;47.760;-122.022;2023-04-01T09:20:08;101253.06099999999;;;4.2;unknown
73422;BME280;61637;47.760;-122.022;2023-04-01T09:22:06;101253.06099999999;;;4.2;unknown
73422;BME280;61637;47.760;-122.022;2023-04-01T09:26:06;101253.06099999999;;;4.2;unknown